createdAt,value
2022-11-29T00:01:27.608Z,101261.72
2022-11-29T00:03:55.865Z,101254.69
2022-11-29T00:06:30.908Z,101253.81
2022-11-29T00:09:01.271Z,101250.31
2022-11-29T00:11:55.228Z,101250.25
2022-11-29T00:14:23.983Z,101259.03
2022-11-29T00:16:59.434Z,101261.69
2022-11-29T00:19:26.734Z,101260.81
2022-11-29T00:21:53.823Z,101252.94
2022-11-29T00:24:21.508Z,101267.78
2022-11-29T00:26:49.241Z,101264.28
2022-11-29T00:29:17.238Z,101272.16
2022-11-29T00:31:44.757Z,101266.03
2022-11-29T00:34:12.800Z,101268.69
2022-11-29T00:36:40.833Z,101273.09
2022-11-29T00:39:11.935Z,101267.06
2022-11-29T00:41:40.204Z,101268.84
2022-11-29T00:44:08.180Z,101269.69
2022-11-29T00:46:35.361Z,101270.59
2022-11-29T00:49:02.537Z,101271.53
2022-11-29T00:51:29.689Z,101269.78
2022-11-29T00:53:56.842Z,101264.50
2022-11-29T00:56:24.127Z,101261.91
2022-11-29T00:58:51.458Z,101260.13
2022-11-29T01:01:18.921Z,101261.84
2022-11-29T01:03:46.411Z,101264.44
2022-11-29T01:06:17.295Z,101265.25
2022-11-29T01:08:48.313Z,101274.81
2022-11-29T01:11:23.268Z,101277.41
2022-11-29T01:13:55.035Z,101273.06
2022-11-29T01:16:22.767Z,101275.66
2022-11-29T01:18:50.104Z,101274.81
2022-11-29T01:21:22.286Z,101280.06
2022-11-29T01:23:51.709Z,101287.91
2022-11-29T01:26:25.582Z,101279.16
2022-11-29T01:28:55.293Z,101287.00
2022-11-29T01:31:29.937Z,101279.97
2022-11-29T01:34:00.239Z,101284.34
2022-11-29T01:36:28.378Z,101284.28
2022-11-29T01:38:55.648Z,101284.28
2022-11-29T01:41:31.182Z,101293.84
2022-11-29T01:44:05.673Z,101291.25
2022-11-29T01:46:36.897Z,101291.22
2022-11-29T01:49:21.279Z,101299.03
2022-11-29T01:51:53.766Z,101294.63
2022-11-29T01:54:22.096Z,101303.34
2022-11-29T01:56:51.883Z,101303.25
2022-11-29T01:59:25.817Z,101309.34
2022-11-29T02:01:54.635Z,101313.69
2022-11-29T02:04:21.927Z,101317.97
2022-11-29T02:06:49.376Z,101324.13
2022-11-29T02:09:23.965Z,101320.63
2022-11-29T02:12:22.850Z,101325.00
2022-11-29T02:15:37.714Z,101320.69
2022-11-29T02:18:45.446Z,101325.09
2022-11-29T02:21:28.576Z,101324.28
2022-11-29T02:24:20.336Z,101325.19
2022-11-29T02:27:21.632Z,101324.34
2022-11-29T02:30:27.185Z,101332.25
2022-11-29T02:33:37.637Z,101332.34
2022-11-29T02:36:24.898Z,101333.28
2022-11-29T02:39:33.255Z,101338.63
2022-11-29T02:42:24.741Z,101333.44
2022-11-29T02:45:25.946Z,101326.47
2022-11-29T02:48:38.567Z,101330.91
2022-11-29T02:51:26.112Z,101330.00
2022-11-29T02:54:09.122Z,101338.75
2022-11-29T02:56:54.956Z,101345.81
2022-11-29T03:00:03.784Z,101339.75
2022-11-29T03:02:51.992Z,101343.28
2022-11-29T03:06:08.907Z,101346.00
2022-11-29T03:09:01.660Z,101345.13
2022-11-29T03:12:10.753Z,101350.34
2022-11-29T03:15:11.255Z,101355.56
2022-11-29T03:18:07.307Z,101356.44
2022-11-29T03:20:36.152Z,101366.91
2022-11-29T03:23:14.281Z,101370.44
2022-11-29T03:26:03.859Z,101362.59
2022-11-29T03:28:55.089Z,101370.44
2022-11-29T03:32:08.382Z,101373.94
2022-11-29T03:35:08.548Z,101369.56
2022-11-29T03:37:58.757Z,101372.19
2022-11-29T03:41:05.743Z,101374.81
2022-11-29T03:43:41.679Z,101384.41
2022-11-29T03:46:21.772Z,101377.44
2022-11-29T03:48:56.211Z,101378.34
2022-11-29T03:51:41.380Z,101377.47
2022-11-29T03:54:14.838Z,101378.38
2022-11-29T03:56:42.595Z,101383.69
2022-11-29T04:00:07.972Z,101385.47
2022-11-29T04:03:44.159Z,101392.38
2022-11-29T04:06:41.980Z,101399.34
2022-11-29T04:09:51.072Z,101402.00
2022-11-29T04:12:25.889Z,101396.78
2022-11-29T04:15:38.845Z,101403.78
2022-11-29T04:18:45.858Z,101403.75
2022-11-29T04:21:46.687Z,101406.28
2022-11-29T04:24:42.046Z,101409.75
2022-11-29T04:27:39.020Z,101408.84
2022-11-29T04:30:23.673Z,101408.84
2022-11-29T04:33:41.827Z,101411.47
2022-11-29T04:36:41.838Z,101409.66
2022-11-29T04:39:47.714Z,101422.75
2022-11-29T04:42:45.139Z,101422.69
2022-11-29T04:45:37.020Z,101416.66
2022-11-29T04:48:46.648Z,101422.78
2022-11-29T04:51:43.146Z,101425.41
2022-11-29T04:54:55.475Z,101423.69
2022-11-29T04:58:03.969Z,101442.03
2022-11-29T05:00:45.417Z,101426.31
2022-11-29T05:03:26.328Z,101427.19
2022-11-29T05:06:15.429Z,101438.50
2022-11-29T05:09:31.537Z,101440.28
2022-11-29T05:12:25.792Z,101442.94
2022-11-29T05:15:14.394Z,101452.63
2022-11-29T05:18:00.303Z,101452.63
2022-11-29T05:20:53.093Z,101452.66
2022-11-29T05:24:00.794Z,101455.31
2022-11-29T05:26:38.448Z,101459.69
2022-11-29T05:29:22.156Z,101458.81
2022-11-29T05:32:13.875Z,101464.94
2022-11-29T05:35:08.565Z,101469.31
2022-11-29T05:37:54.836Z,101467.56
2022-11-29T05:40:55.942Z,101477.19
2022-11-29T05:43:28.249Z,101471.97
2022-11-29T05:46:16.140Z,101478.06
2022-11-29T05:49:03.859Z,101491.25
2022-11-29T05:52:24.598Z,101490.31
2022-11-29T05:55:42.983Z,101497.25
2022-11-29T05:58:50.909Z,101500.72
2022-11-29T06:02:17.678Z,101502.44
2022-11-29T06:05:16.942Z,101512.06
2022-11-29T06:07:52.165Z,101511.19
2022-11-29T06:10:23.465Z,101522.50
2022-11-29T06:13:27.987Z,101533.06
2022-11-29T06:16:32.579Z,101533.16
2022-11-29T06:19:24.255Z,101537.56
2022-11-29T06:22:34.892Z,101543.69
2022-11-29T06:25:17.420Z,101554.09
2022-11-29T06:28:28.688Z,101562.88
2022-11-29T06:31:25.498Z,101558.50
2022-11-29T06:34:30.364Z,101566.41
2022-11-29T06:37:06.937Z,101569.03
2022-11-29T06:39:36.991Z,101573.41
2022-11-29T06:42:04.096Z,101574.28
2022-11-29T06:44:31.777Z,101567.31
2022-11-29T06:47:19.206Z,101577.00
2022-11-29T06:50:33.590Z,101578.81
2022-11-29T06:53:19.366Z,101581.38
2022-11-29T06:56:21.354Z,101584.00
2022-11-29T06:59:50.853Z,101595.38
2022-11-29T07:02:38.908Z,101589.25
2022-11-29T07:05:29.078Z,101596.22
2022-11-29T07:08:08.849Z,101585.69
2022-11-29T07:10:39.747Z,101592.72
2022-11-29T07:13:07.637Z,101602.31
2022-11-29T07:15:37.946Z,101607.56
2022-11-29T07:18:33.418Z,101611.88
2022-11-29T07:21:35.561Z,101611.75
2022-11-29T07:24:38.467Z,101609.19
2022-11-29T07:27:23.213Z,101609.22
2022-11-29T07:30:12.109Z,101614.56
2022-11-29T07:33:21.202Z,101614.59
2022-11-29T07:36:40.986Z,101623.34
2022-11-29T07:39:32.450Z,101631.22
2022-11-29T07:42:55.135Z,101628.63
2022-11-29T07:45:31.978Z,101634.78
2022-11-29T07:47:59.841Z,101636.66
2022-11-29T07:50:30.934Z,101642.78
2022-11-29T07:52:59.339Z,101640.19
2022-11-29T07:55:29.705Z,101634.97
2022-11-29T07:57:56.841Z,101642.84
2022-11-29T08:00:24.214Z,101642.88
2022-11-29T08:02:51.828Z,101643.84
2022-11-29T08:05:19.215Z,101646.56
2022-11-29T08:07:47.787Z,101643.09
2022-11-29T08:10:16.975Z,101650.19
2022-11-29T08:12:47.728Z,101652.84
2022-11-29T08:15:15.171Z,101654.59
2022-11-29T08:17:42.579Z,101659.84
2022-11-29T08:20:11.664Z,101665.97
2022-11-29T08:22:38.946Z,101660.69
2022-11-29T08:25:07.867Z,101660.63
2022-11-29T08:27:36.840Z,101661.50
2022-11-29T08:30:06.517Z,101662.34
2022-11-29T08:32:34.899Z,101666.69
2022-11-29T08:35:01.922Z,101670.25
2022-11-29T08:37:29.163Z,101668.56
2022-11-29T08:39:58.261Z,101667.81
2022-11-29T08:42:25.681Z,101676.63
2022-11-29T08:44:52.682Z,101672.25
2022-11-29T08:47:37.894Z,101674.16
2022-11-29T08:50:17.099Z,101683.94
2022-11-29T08:53:06.497Z,101683.97
2022-11-29T08:55:37.670Z,101686.75
2022-11-29T08:58:12.160Z,101694.72
2022-11-29T09:00:40.919Z,101697.50
2022-11-29T09:03:27.303Z,101696.59
2022-11-29T09:05:55.375Z,101690.34
2022-11-29T09:08:22.599Z,101695.50
2022-11-29T09:10:50.105Z,101689.38
2022-11-29T09:13:18.232Z,101691.31
2022-11-29T09:15:45.485Z,101692.44
2022-11-29T09:18:12.802Z,101700.50
2022-11-29T09:20:46.795Z,101698.03
2022-11-29T09:23:14.126Z,101699.88
2022-11-29T09:25:41.185Z,101698.28
2022-11-29T09:28:08.756Z,101704.56
2022-11-29T09:30:38.028Z,101704.66
2022-11-29T09:33:05.418Z,101705.69
2022-11-29T09:35:33.812Z,101711.16
2022-11-29T09:38:01.118Z,101710.38
2022-11-29T09:40:40.607Z,101715.00
2022-11-29T09:43:23.306Z,101708.97
2022-11-29T09:46:16.016Z,101721.34
2022-11-29T09:49:27.755Z,101717.09
2022-11-29T09:52:38.352Z,101718.03
2022-11-29T09:55:32.336Z,101724.25
2022-11-29T09:58:05.947Z,101723.44
2022-11-29T10:00:38.752Z,101731.34
2022-11-29T10:03:28.231Z,101727.97
2022-11-29T10:06:16.926Z,101728.31
2022-11-29T10:08:44.855Z,101731.94
2022-11-29T10:12:06.155Z,101726.81
2022-11-29T10:14:58.871Z,101726.13
2022-11-29T10:18:02.325Z,101735.03
2022-11-29T10:20:42.444Z,101730.66
2022-11-29T10:23:46.958Z,101730.00
2022-11-29T10:26:14.786Z,101732.72
2022-11-29T10:28:45.135Z,101728.31
2022-11-29T10:31:35.005Z,101729.22
2022-11-29T10:34:12.639Z,101725.75
2022-11-29T10:36:43.885Z,101723.03
2022-11-29T10:39:35.711Z,101734.25
2022-11-29T10:42:06.642Z,101721.84
2022-11-29T10:44:34.079Z,101731.44
2022-11-29T10:47:10.441Z,101729.63
2022-11-29T10:49:40.288Z,101726.94
2022-11-29T10:52:20.260Z,101729.56
2022-11-29T10:54:49.325Z,101721.56
2022-11-29T10:57:21.210Z,101731.94
2022-11-29T11:00:11.505Z,101731.91
2022-11-29T11:02:39.159Z,101734.53
2022-11-29T11:05:18.845Z,101730.19
2022-11-29T11:07:55.980Z,101732.94
2022-11-29T11:10:29.585Z,101725.94
2022-11-29T11:13:27.367Z,101725.09
2022-11-29T11:16:08.128Z,101730.38
2022-11-29T11:18:36.251Z,101727.72
2022-11-29T11:21:07.494Z,101730.44
2022-11-29T11:23:42.361Z,101734.84
2022-11-29T11:26:13.881Z,101736.53
2022-11-29T11:28:53.339Z,101737.44
2022-11-29T11:31:38.245Z,101742.78
2022-11-29T11:34:29.632Z,101737.53
2022-11-29T11:37:30.847Z,101744.47
2022-11-29T11:40:01.351Z,101740.94
2022-11-29T11:42:41.030Z,101748.72
2022-11-29T11:45:13.901Z,101752.97
2022-11-29T11:47:52.289Z,101759.00
2022-11-29T11:50:52.255Z,101763.38
2022-11-29T11:53:35.703Z,101760.69
2022-11-29T11:56:12.597Z,101767.69
2022-11-29T11:58:57.802Z,101766.81
2022-11-29T12:01:30.303Z,101769.41
2022-11-29T12:04:13.076Z,101766.81
2022-11-29T12:07:02.021Z,101774.72
2022-11-29T12:09:55.831Z,101770.41
2022-11-29T12:12:43.384Z,101773.94
2022-11-29T12:15:30.604Z,101778.25
2022-11-29T12:18:13.910Z,101783.38
2022-11-29T12:20:58.285Z,101785.81
2022-11-29T12:23:30.981Z,101790.97
2022-11-29T12:26:41.196Z,101797.88
2022-11-29T12:29:19.958Z,101800.53
2022-11-29T12:32:19.437Z,101801.50
2022-11-29T12:35:09.444Z,101809.34
2022-11-29T12:38:04.256Z,101811.88
2022-11-29T12:40:57.443Z,101807.34
2022-11-29T12:44:05.366Z,101815.16
2022-11-29T12:46:34.231Z,101809.88
2022-11-29T12:49:31.896Z,101815.22
2022-11-29T12:52:48.313Z,101815.50
2022-11-29T12:55:26.361Z,101821.84
2022-11-29T12:58:46.838Z,101824.44
2022-11-29T13:01:47.261Z,101823.44
2022-11-29T13:04:38.343Z,101824.31
2022-11-29T13:07:46.298Z,101818.50
2022-11-29T13:10:48.662Z,101813.41
2022-11-29T13:13:29.931Z,101822.06
2022-11-29T13:16:21.279Z,101825.47
2022-11-29T13:19:24.049Z,101825.34
2022-11-29T13:22:07.179Z,101826.28
2022-11-29T13:24:59.488Z,101821.31
2022-11-29T13:27:32.483Z,101827.59
2022-11-29T13:30:01.590Z,101822.41
2022-11-29T13:32:48.757Z,101817.97
2022-11-29T13:35:15.611Z,101825.75
2022-11-29T13:38:07.492Z,101826.44
2022-11-29T13:41:11.229Z,101828.88
2022-11-29T13:44:15.027Z,101836.59
2022-11-29T13:46:56.703Z,101840.03
2022-11-29T13:50:07.377Z,101839.06
2022-11-29T13:52:49.549Z,101841.59
2022-11-29T13:55:30.865Z,101844.16
2022-11-29T13:58:29.027Z,101845.91
2022-11-29T14:01:12.556Z,101847.63
2022-11-29T14:04:07.471Z,101844.09
2022-11-29T14:06:39.117Z,101853.69
2022-11-29T14:09:29.523Z,101854.47
2022-11-29T14:12:23.488Z,101843.06
2022-11-29T14:15:03.890Z,101837.03
2022-11-29T14:17:53.929Z,101844.91
2022-11-29T14:20:23.944Z,101854.56
2022-11-29T14:23:06.460Z,101855.47
2022-11-29T14:26:01.343Z,101861.56
2022-11-29T14:28:34.053Z,101855.41
2022-11-29T14:31:03.505Z,101859.75
2022-11-29T14:34:12.861Z,101862.44
2022-11-29T14:36:42.955Z,101867.69
2022-11-29T14:40:03.283Z,101866.75
2022-11-29T14:42:31.846Z,101865.81
2022-11-29T14:45:06.320Z,101869.34
2022-11-29T14:47:47.155Z,101869.34
2022-11-29T14:50:39.351Z,101870.19
2022-11-29T14:53:28.044Z,101872.75
2022-11-29T14:56:35.408Z,101874.56
2022-11-29T14:59:51.770Z,101877.19
2022-11-29T15:02:29.377Z,101881.50
2022-11-29T15:05:04.918Z,101877.03
2022-11-29T15:07:33.690Z,101883.13
2022-11-29T15:10:05.050Z,101881.34
2022-11-29T15:12:37.301Z,101875.09
2022-11-29T15:15:31.979Z,101885.59
2022-11-29T15:18:58.090Z,101888.25
2022-11-29T15:22:09.759Z,101887.38
2022-11-29T15:25:02.206Z,101887.34
2022-11-29T15:27:29.600Z,101888.19
2022-11-29T15:29:56.854Z,101889.97
2022-11-29T15:32:30.914Z,101886.50
2022-11-29T15:34:58.717Z,101888.22
2022-11-29T15:37:35.755Z,101892.69
2022-11-29T15:40:19.989Z,101890.88
2022-11-29T15:43:20.122Z,101890.06
2022-11-29T15:45:52.004Z,101890.84
2022-11-29T15:48:20.909Z,101893.47
2022-11-29T15:51:09.015Z,101889.13
2022-11-29T15:54:12.780Z,101894.38
2022-11-29T15:56:55.585Z,101889.19
2022-11-29T15:59:34.635Z,101891.81
2022-11-29T16:02:26.587Z,101891.75
2022-11-29T16:05:03.182Z,101890.78
2022-11-29T16:07:32.825Z,101895.03
2022-11-29T16:10:16.673Z,101900.28
2022-11-29T16:13:07.735Z,101901.09
2022-11-29T16:15:40.038Z,101907.22
2022-11-29T16:18:20.024Z,101901.97
2022-11-29T16:21:04.457Z,101903.75
2022-11-29T16:23:42.928Z,101895.88
2022-11-29T16:26:28.746Z,101901.13
2022-11-29T16:28:58.153Z,101901.09
2022-11-29T16:31:34.481Z,101900.22
2022-11-29T16:34:31.645Z,101896.66
2022-11-29T16:37:06.615Z,101901.09
2022-11-29T16:39:37.858Z,101899.34
2022-11-29T16:42:30.244Z,101903.72
2022-11-29T16:45:16.050Z,101909.72
2022-11-29T16:48:02.820Z,101912.31
2022-11-29T16:50:32.700Z,101915.78
2022-11-29T16:53:47.993Z,101917.56
2022-11-29T16:56:17.446Z,101925.41
2022-11-29T16:59:16.966Z,101921.84
2022-11-29T17:01:36.035Z,101923.56
2022-11-29T17:04:05.674Z,101924.47
2022-11-29T17:06:33.090Z,101916.59
2022-11-29T17:09:01.669Z,101924.50
2022-11-29T17:11:30.378Z,101917.56
2022-11-29T17:13:57.750Z,101925.44
2022-11-29T17:16:25.142Z,101929.00
2022-11-29T17:18:55.387Z,101925.50
2022-11-29T17:21:32.349Z,101926.38
2022-11-29T17:23:59.327Z,101925.50
2022-11-29T17:26:26.528Z,101931.63
2022-11-29T17:28:54.383Z,101933.44
2022-11-29T17:31:24.149Z,101927.31
2022-11-29T17:33:51.671Z,101929.94
2022-11-29T17:36:20.661Z,101946.63
2022-11-29T17:38:48.508Z,101947.47
2022-11-29T17:41:21.867Z,101949.25
2022-11-29T17:43:50.896Z,101950.09
2022-11-29T17:46:28.217Z,101956.19
2022-11-29T17:48:56.350Z,101954.38
2022-11-29T17:54:12.138Z,101948.16
2022-11-29T17:56:39.431Z,101949.03
2022-11-29T17:59:07.435Z,101953.34
2022-11-29T18:01:36.158Z,101955.00
2022-11-29T18:04:06.425Z,101955.03
2022-11-29T18:06:40.186Z,101955.03
2022-11-29T18:09:10.416Z,101955.03
2022-11-29T18:11:49.850Z,101959.38
2022-11-29T18:14:23.945Z,101963.69
2022-11-29T18:16:51.918Z,101960.09
2022-11-29T18:19:22.031Z,101960.84
2022-11-29T18:21:50.244Z,101965.94
2022-11-29T18:24:18.474Z,101965.66
2022-11-29T18:26:46.168Z,101966.28
2022-11-29T18:29:13.665Z,101959.81
2022-11-29T18:31:43.657Z,101966.56
2022-11-29T18:34:13.832Z,101958.44
2022-11-29T18:36:47.604Z,101952.09
2022-11-29T18:39:17.670Z,101958.81
2022-11-29T18:41:50.588Z,101961.19
2022-11-29T18:44:21.542Z,101957.44
2022-11-29T18:46:49.234Z,101959.78
2022-11-29T18:49:19.520Z,101958.63
2022-11-29T18:51:47.663Z,101965.41
2022-11-29T18:54:17.667Z,101969.56
2022-11-29T18:56:46.615Z,101968.59
2022-11-29T18:59:17.637Z,101970.13
2022-11-29T19:01:48.053Z,101964.69
2022-11-29T19:04:21.138Z,101979.47
2022-11-29T19:06:48.967Z,101981.00
2022-11-29T19:09:21.792Z,101984.28
2022-11-29T19:11:51.925Z,101983.31
2022-11-29T19:14:19.882Z,101983.22
2022-11-29T19:16:49.771Z,101983.03
2022-11-29T19:19:18.918Z,101981.09
2022-11-29T19:21:46.142Z,101987.00
2022-11-29T19:24:15.736Z,101991.25
2022-11-29T19:26:45.805Z,101986.81
2022-11-29T19:29:14.591Z,101994.66
2022-11-29T19:31:42.685Z,101999.91
2022-11-29T19:34:10.439Z,101996.28
2022-11-29T19:36:42.790Z,101994.66
2022-11-29T19:39:17.865Z,102003.50
2022-11-29T19:41:47.690Z,102000.91
2022-11-29T19:44:15.225Z,102007.16
2022-11-29T19:46:47.177Z,102009.84
2022-11-29T19:49:15.114Z,102009.19
2022-11-29T19:51:42.195Z,102005.81
2022-11-29T19:54:11.924Z,102004.22
2022-11-29T19:56:39.972Z,101995.56
2022-11-29T19:59:08.479Z,102003.59
2022-11-29T20:01:41.766Z,101994.09
2022-11-29T20:04:11.984Z,102007.38
2022-11-29T20:06:40.276Z,102011.84
2022-11-29T20:09:07.973Z,102010.28
2022-11-29T20:11:35.524Z,102012.09
2022-11-29T20:14:04.768Z,102010.50
2022-11-29T20:16:32.505Z,102015.84
2022-11-29T20:18:59.992Z,102019.41
2022-11-29T20:21:32.771Z,102016.91
2022-11-29T20:24:05.580Z,102019.66
2022-11-29T20:26:36.290Z,102020.56
2022-11-29T20:29:05.080Z,102023.34
2022-11-29T20:31:34.431Z,102029.63
2022-11-29T20:34:02.723Z,102030.66
2022-11-29T20:37:19.495Z,102029.97
2022-11-29T20:40:15.863Z,102030.06
2022-11-29T20:43:17.550Z,102028.38
2022-11-29T20:45:45.226Z,102034.56
2022-11-29T20:48:25.786Z,102032.91
2022-11-29T20:51:02.877Z,102033.81
2022-11-29T20:53:40.582Z,102028.59
2022-11-29T20:56:09.139Z,102032.19
2022-11-29T20:58:36.233Z,102039.19
2022-11-29T21:01:05.110Z,102037.53
2022-11-29T21:03:32.684Z,102044.56
2022-11-29T21:06:03.670Z,102051.53
2022-11-29T21:08:31.214Z,102048.03
2022-11-29T21:11:08.007Z,102050.75
2022-11-29T21:13:35.894Z,102046.34
2022-11-29T21:16:03.983Z,102043.63
2022-11-29T21:18:32.430Z,102045.38
2022-11-29T21:21:14.837Z,102051.47
2022-11-29T21:23:51.996Z,102054.88
2022-11-29T21:26:49.707Z,102056.50
2022-11-29T21:29:20.840Z,102052.88
2022-11-29T21:31:51.889Z,102049.28
2022-11-29T21:34:20.341Z,102051.91
2022-11-29T21:36:57.991Z,102054.56
2022-11-29T21:39:33.529Z,102050.25
2022-11-29T21:42:01.359Z,102046.69
2022-11-29T21:44:28.480Z,102045.81
2022-11-29T21:46:55.646Z,102044.16
2022-11-29T21:49:22.640Z,102050.28
2022-11-29T21:51:49.699Z,102053.81
2022-11-29T21:54:16.930Z,102045.94
2022-11-29T21:56:44.314Z,102047.75
2022-11-29T21:59:11.360Z,102051.38
2022-11-29T22:01:42.837Z,102052.31
2022-11-29T22:04:10.505Z,102050.53
2022-11-29T22:06:37.836Z,102051.41
2022-11-29T22:09:05.472Z,102055.00
2022-11-29T22:11:34.323Z,102057.66
2022-11-29T22:14:14.624Z,102055.94
2022-11-29T22:16:59.700Z,102058.66
2022-11-29T22:19:33.878Z,102053.47
2022-11-29T22:22:07.089Z,102051.72
2022-11-29T22:24:36.665Z,102057.00
2022-11-29T22:27:04.032Z,102055.25
2022-11-29T22:29:31.366Z,102051.72
2022-11-29T22:31:59.538Z,102052.66
2022-11-29T22:34:27.847Z,102057.00
2022-11-29T22:36:55.351Z,102055.31
2022-11-29T22:39:22.651Z,102048.34
2022-11-29T22:41:54.319Z,102050.16
2022-11-29T22:44:23.894Z,102044.09
2022-11-29T22:46:51.721Z,102042.31
2022-11-29T22:49:19.153Z,102044.06
2022-11-29T22:51:46.754Z,102050.22
2022-11-29T22:54:16.439Z,102050.19
2022-11-29T22:56:45.515Z,102049.28
2022-11-29T22:59:12.551Z,102055.44
2022-11-29T23:01:42.028Z,102060.66
2022-11-29T23:04:11.332Z,102063.28
2022-11-29T23:06:44.251Z,102063.28
2022-11-29T23:09:16.597Z,102069.38
2022-11-29T23:11:45.583Z,102071.13
2022-11-29T23:14:13.109Z,102070.28
2022-11-29T23:16:41.389Z,102066.81
2022-11-29T23:19:09.127Z,102067.66
2022-11-29T23:21:40.741Z,102072.91
2022-11-29T23:24:08.424Z,102068.53
2022-11-29T23:26:40.274Z,102072.09
2022-11-29T23:29:11.916Z,102076.47
2022-11-29T23:31:39.688Z,102073.91
2022-11-29T23:34:07.771Z,102074.75
2022-11-29T23:36:35.638Z,102074.75
2022-11-29T23:39:03.002Z,102071.28
2022-11-29T23:41:30.073Z,102078.25
2022-11-29T23:43:57.380Z,102063.34
2022-11-29T23:46:24.654Z,102069.41
2022-11-29T23:48:52.306Z,102059.78
2022-11-29T23:51:21.161Z,102066.75
2022-11-29T23:53:53.174Z,102065.88
2022-11-29T23:56:21.325Z,102070.28
2022-11-29T23:58:48.742Z,102064.06
